createdAt,value
2023-04-22T00:01:43.762Z,99.90
2023-04-22T00:04:11.336Z,99.90
2023-04-22T00:06:38.776Z,99.90
2023-04-22T00:09:06.041Z,99.90
2023-04-22T00:11:33.274Z,99.90
2023-04-22T00:14:00.486Z,99.90
2023-04-22T00:16:27.976Z,99.90
2023-04-22T00:18:55.263Z,99.90
2023-04-22T00:21:22.534Z,99.90
2023-04-22T00:23:49.752Z,99.90
2023-04-22T00:26:16.984Z,99.90
2023-04-22T00:28:44.407Z,99.90
2023-04-22T00:31:11.845Z,99.90
2023-04-22T00:33:39.065Z,99.90
2023-04-22T00:36:06.709Z,99.90
2023-04-22T00:38:34.288Z,99.90
2023-04-22T00:41:02.457Z,99.90
2023-04-22T00:43:29.708Z,99.90
2023-04-22T00:45:58.011Z,99.90
2023-04-22T00:48:28.213Z,99.90
2023-04-22T00:50:56.273Z,99.90
2023-04-22T00:53:23.488Z,99.90
2023-04-22T00:55:50.964Z,99.90
2023-04-22T00:58:20.942Z,99.90
2023-04-22T01:00:48.249Z,99.90
2023-04-22T01:03:15.998Z,99.90
2023-04-22T01:05:43.834Z,99.90
2023-04-22T01:08:11.950Z,99.90
2023-04-22T01:10:39.468Z,99.90
2023-04-22T01:13:06.744Z,99.90
2023-04-22T01:15:34.250Z,99.90
2023-04-22T01:18:02.624Z,99.90
2023-04-22T01:20:30.672Z,99.90
2023-04-22T01:23:03.119Z,99.90
2023-04-22T01:25:30.966Z,99.90
2023-04-22T01:27:58.590Z,99.90
2023-04-22T01:30:26.427Z,99.90
2023-04-22T01:32:53.955Z,99.90
2023-04-22T01:35:21.582Z,99.90
2023-04-22T01:37:48.823Z,99.90
2023-04-22T01:40:19.733Z,99.90
2023-04-22T01:42:47.411Z,99.90
2023-04-22T01:45:17.675Z,99.90
2023-04-22T01:47:45.043Z,99.90
2023-04-22T01:50:12.240Z,99.90
2023-04-22T01:52:39.716Z,99.90
2023-04-22T01:55:08.611Z,99.90
2023-04-22T01:57:36.739Z,99.90
2023-04-22T02:00:05.963Z,99.90
2023-04-22T02:02:40.246Z,99.90
2023-04-22T02:05:08.435Z,99.90
2023-04-22T02:07:36.453Z,99.90
2023-04-22T02:10:05.652Z,99.90
2023-04-22T02:12:32.917Z,99.90
2023-04-22T02:15:00.248Z,99.90
2023-04-22T02:17:27.717Z,99.90
2023-04-22T02:19:55.344Z,99.90
2023-04-22T02:22:24.118Z,99.90
2023-04-22T02:24:51.782Z,99.90
2023-04-22T02:27:19.074Z,99.90
2023-04-22T02:29:48.369Z,99.90
2023-04-22T02:32:17.906Z,99.90
2023-04-22T02:34:45.194Z,99.90
2023-04-22T02:37:13.611Z,99.90
2023-04-22T02:39:41.173Z,99.90
2023-04-22T02:42:08.831Z,99.90
2023-04-22T02:44:36.111Z,99.90
2023-04-22T02:47:03.829Z,99.90
2023-04-22T02:49:31.243Z,99.90
2023-04-22T02:51:58.477Z,99.90
2023-04-22T02:54:25.706Z,99.90
2023-04-22T02:56:52.915Z,99.90
2023-04-22T02:59:20.164Z,99.90
2023-04-22T03:01:47.447Z,99.90
2023-04-22T03:04:26.080Z,99.90
2023-04-22T03:06:53.887Z,99.90
2023-04-22T03:09:21.152Z,99.90
2023-04-22T03:11:48.387Z,99.90
2023-04-22T03:14:15.789Z,99.90
2023-04-22T03:16:43.110Z,99.90
2023-04-22T03:19:10.479Z,99.90
2023-04-22T03:21:37.714Z,99.90
2023-04-22T03:24:05.971Z,99.90
2023-04-22T03:26:34.912Z,99.90
2023-04-22T03:29:02.247Z,99.90
2023-04-22T03:31:29.576Z,99.90
2023-04-22T03:33:57.165Z,99.90
2023-04-22T03:36:28.502Z,99.90
2023-04-22T03:38:57.044Z,99.90
2023-04-22T03:41:29.060Z,99.90
2023-04-22T03:43:56.600Z,99.90
2023-04-22T03:46:24.978Z,99.90
2023-04-22T03:49:12.565Z,99.90
2023-04-22T03:51:40.543Z,99.90
2023-04-22T03:54:12.503Z,99.90
2023-04-22T03:56:46.528Z,99.90
2023-04-22T03:59:14.026Z,99.90
2023-04-22T04:01:41.325Z,99.90
2023-04-22T04:04:10.438Z,99.90
2023-04-22T04:06:51.224Z,99.90
2023-04-22T04:09:18.711Z,99.90
2023-04-22T04:11:46.961Z,99.90
2023-04-22T04:14:14.799Z,99.90
2023-04-22T04:16:52.413Z,99.90
2023-04-22T04:19:29.072Z,99.90
2023-04-22T04:21:57.059Z,99.90
2023-04-22T04:24:26.410Z,99.90
2023-04-22T04:27:00.371Z,99.90
2023-04-22T04:29:33.239Z,99.90
2023-04-22T04:32:12.421Z,99.90
2023-04-22T04:34:39.649Z,99.90
2023-04-22T04:37:09.195Z,99.90
2023-04-22T04:39:46.639Z,99.90
2023-04-22T04:42:14.555Z,99.90
2023-04-22T04:44:50.959Z,99.90
2023-04-22T04:47:22.517Z,99.90
2023-04-22T04:49:54.267Z,99.90
2023-04-22T04:52:21.786Z,99.90
2023-04-22T04:54:49.141Z,99.90
2023-04-22T04:57:16.557Z,99.90
2023-04-22T04:59:43.950Z,99.90
2023-04-22T05:02:11.499Z,99.90
2023-04-22T05:04:39.212Z,99.90
2023-04-22T05:07:06.711Z,99.90
2023-04-22T05:09:37.644Z,99.90
2023-04-22T05:12:05.627Z,99.90
2023-04-22T05:14:33.072Z,99.90
2023-04-22T05:17:00.698Z,99.90
2023-04-22T05:19:28.861Z,99.90
2023-04-22T05:21:57.554Z,99.90
2023-04-22T05:24:25.096Z,99.90
2023-04-22T05:26:53.208Z,99.90
2023-04-22T05:29:20.951Z,99.90
2023-04-22T05:31:51.291Z,99.90
2023-04-22T05:34:18.641Z,99.90
2023-04-22T05:36:46.040Z,99.90
2023-04-22T05:39:14.293Z,99.90
2023-04-22T05:41:41.569Z,99.90
2023-04-22T05:44:11.001Z,99.90
2023-04-22T05:46:38.784Z,99.90
2023-04-22T05:49:06.110Z,99.90
2023-04-22T05:51:56.401Z,99.90
2023-04-22T05:54:29.374Z,99.90
2023-04-22T05:56:57.003Z,99.90
2023-04-22T05:59:24.571Z,99.90
2023-04-22T06:01:51.829Z,99.90
2023-04-22T06:04:21.011Z,99.90
2023-04-22T06:06:48.816Z,99.90
2023-04-22T06:09:16.048Z,99.90
2023-04-22T06:11:43.428Z,99.90
2023-04-22T06:14:12.245Z,99.90
2023-04-22T06:16:41.223Z,99.90
2023-04-22T06:19:09.042Z,99.90
2023-04-22T06:21:40.053Z,99.90
2023-04-22T06:24:07.516Z,99.90
2023-04-22T06:26:34.874Z,99.90
2023-04-22T06:29:05.209Z,99.90
2023-04-22T06:31:33.541Z,99.90
2023-04-22T06:34:00.940Z,99.90
2023-04-22T06:36:30.563Z,99.90
2023-04-22T06:39:02.582Z,99.90
2023-04-22T06:41:49.189Z,99.90
2023-04-22T06:44:42.729Z,99.90
2023-04-22T06:47:29.054Z,99.90
2023-04-22T06:50:04.079Z,99.90
2023-04-22T06:52:37.299Z,99.90
2023-04-22T06:55:04.927Z,99.90
2023-04-22T06:57:32.249Z,99.90
2023-04-22T06:59:59.890Z,99.90
2023-04-22T07:02:28.115Z,99.90
2023-04-22T07:04:55.525Z,99.90
2023-04-22T07:07:22.982Z,99.90
2023-04-22T07:09:50.747Z,99.90
2023-04-22T07:12:18.097Z,99.90
2023-04-22T07:14:46.086Z,99.90
2023-04-22T07:17:13.322Z,99.90
2023-04-22T07:19:40.890Z,99.90
2023-04-22T07:22:08.778Z,99.90
2023-04-22T07:24:36.031Z,99.90
2023-04-22T07:27:03.693Z,99.90
2023-04-22T07:29:30.977Z,99.90
2023-04-22T07:31:58.179Z,99.90
2023-04-22T07:34:25.473Z,99.90
2023-04-22T07:36:53.466Z,99.90
2023-04-22T07:39:20.816Z,99.90
2023-04-22T07:41:48.058Z,99.90
2023-04-22T07:44:18.405Z,99.90
2023-04-22T07:46:45.659Z,99.90
2023-04-22T07:49:14.147Z,99.90
2023-04-22T07:51:41.581Z,99.90
2023-04-22T07:54:08.846Z,99.90
2023-04-22T07:56:36.172Z,99.90
2023-04-22T07:59:04.226Z,99.90
2023-04-22T08:01:31.535Z,99.90
2023-04-22T08:03:59.188Z,99.90
2023-04-22T08:06:28.095Z,99.80
2023-04-22T08:08:55.443Z,99.70
2023-04-22T08:11:22.698Z,99.80
2023-04-22T08:13:49.893Z,99.30
2023-04-22T08:16:17.227Z,98.90
2023-04-22T08:18:44.468Z,99.30
2023-04-22T08:21:12.500Z,99.30
2023-04-22T08:23:39.808Z,98.90
2023-04-22T08:26:09.551Z,99.40
2023-04-22T08:28:38.193Z,98.60
2023-04-22T08:31:06.699Z,98.70
2023-04-22T08:33:34.178Z,98.60
2023-04-22T08:36:03.878Z,99.30
2023-04-22T08:38:32.103Z,98.60
2023-04-22T08:41:00.683Z,98.70
2023-04-22T08:43:28.566Z,98.30
2023-04-22T08:45:56.769Z,98.60
2023-04-22T08:48:26.916Z,97.70
2023-04-22T08:50:54.302Z,97.30
2023-04-22T08:53:24.242Z,97.50
2023-04-22T08:55:54.826Z,97.40
2023-04-22T08:58:23.121Z,97.10
2023-04-22T09:00:52.936Z,97.50
2023-04-22T09:03:26.414Z,96.80
2023-04-22T09:05:55.311Z,97.30
2023-04-22T09:08:23.053Z,97.00
2023-04-22T09:10:50.779Z,96.50
2023-04-22T09:13:18.848Z,96.10
2023-04-22T09:15:46.213Z,95.80
2023-04-22T09:18:18.965Z,95.00
2023-04-22T09:20:49.878Z,95.10
2023-04-22T09:23:17.179Z,94.70
2023-04-22T09:25:46.285Z,94.90
2023-04-22T09:28:18.862Z,95.40
2023-04-22T09:30:47.119Z,95.50
2023-04-22T09:33:15.555Z,95.40
2023-04-22T09:35:43.774Z,95.20
2023-04-22T09:38:12.234Z,95.70
2023-04-22T09:40:43.339Z,95.30
2023-04-22T09:43:11.589Z,95.10
2023-04-22T09:45:41.371Z,94.40
2023-04-22T09:48:18.402Z,94.10
2023-04-22T09:50:48.413Z,94.00
2023-04-22T09:53:18.914Z,94.10
2023-04-22T09:55:48.639Z,94.40
2023-04-22T09:58:17.577Z,94.70
2023-04-22T10:00:51.057Z,94.30
2023-04-22T10:03:19.034Z,94.80
2023-04-22T10:05:47.120Z,95.20
2023-04-22T10:08:16.094Z,95.30
2023-04-22T10:10:43.994Z,95.40
2023-04-22T10:13:11.645Z,95.70
2023-04-22T10:15:45.748Z,95.00
2023-04-22T10:18:18.638Z,94.80
2023-04-22T10:20:47.379Z,94.60
2023-04-22T10:23:18.817Z,94.20
2023-04-22T10:25:52.956Z,94.60
2023-04-22T10:28:22.386Z,95.30
2023-04-22T10:30:50.661Z,95.30
2023-04-22T10:33:21.054Z,95.00
2023-04-22T10:36:07.929Z,95.40
2023-04-22T10:38:36.458Z,95.00
2023-04-22T10:41:04.058Z,95.10
2023-04-22T10:43:42.431Z,95.10
2023-04-22T10:46:36.975Z,95.10
2023-04-22T10:49:08.892Z,95.20
2023-04-22T10:51:43.451Z,95.10
2023-04-22T10:54:28.100Z,95.40
2023-04-22T10:57:11.882Z,95.50
2023-04-22T10:59:52.701Z,95.40
2023-04-22T11:02:21.856Z,95.60
2023-04-22T11:04:50.023Z,94.60
2023-04-22T11:07:20.672Z,95.50
2023-04-22T11:09:51.163Z,95.20
2023-04-22T11:12:39.353Z,95.40
2023-04-22T11:15:26.095Z,94.40
2023-04-22T11:17:54.719Z,94.90
2023-04-22T11:20:22.240Z,94.30
2023-04-22T11:22:52.800Z,94.80
2023-04-22T11:25:21.436Z,95.20
2023-04-22T11:27:49.206Z,95.20
2023-04-22T11:30:17.953Z,94.80
2023-04-22T11:32:46.246Z,94.30
2023-04-22T11:35:17.424Z,94.20
2023-04-22T11:37:59.837Z,94.10
2023-04-22T11:40:40.038Z,94.60
2023-04-22T11:43:09.933Z,94.30
2023-04-22T11:45:38.642Z,94.70
2023-04-22T11:48:08.207Z,94.60
2023-04-22T11:50:38.365Z,94.80
2023-04-22T11:53:17.708Z,95.00
2023-04-22T11:55:46.984Z,95.10
2023-04-22T11:58:16.935Z,94.20
2023-04-22T12:00:50.079Z,94.60
2023-04-22T12:03:21.644Z,94.80
2023-04-22T12:05:54.310Z,94.80
2023-04-22T12:08:23.945Z,95.00
2023-04-22T12:10:56.174Z,94.30
2023-04-22T12:13:33.175Z,94.50
2023-04-22T12:16:12.527Z,93.40
2023-04-22T12:18:53.507Z,93.50
2023-04-22T12:21:23.787Z,93.60
2023-04-22T12:23:53.161Z,94.10
2023-04-22T12:26:26.225Z,94.50
2023-04-22T12:28:55.021Z,94.00
2023-04-22T12:31:22.396Z,94.50
2023-04-22T12:33:50.263Z,94.60
2023-04-22T12:36:20.874Z,94.00
2023-04-22T12:38:48.375Z,94.20
2023-04-22T12:41:16.452Z,94.80
2023-04-22T12:43:43.704Z,94.80
2023-04-22T12:46:11.198Z,95.10
2023-04-22T12:48:38.581Z,95.40
2023-04-22T12:51:06.744Z,95.60
2023-04-22T12:53:34.659Z,95.50
2023-04-22T12:56:02.033Z,95.30
2023-04-22T12:58:29.274Z,95.70
2023-04-22T13:00:56.529Z,96.80
2023-04-22T13:03:24.127Z,96.20
2023-04-22T13:05:52.606Z,96.00
2023-04-22T13:08:19.887Z,95.80
2023-04-22T13:10:47.095Z,95.20
2023-04-22T13:13:18.461Z,96.00
2023-04-22T13:15:54.055Z,96.50
2023-04-22T13:18:23.591Z,97.00
2023-04-22T13:20:51.745Z,96.50
2023-04-22T13:23:21.500Z,96.40
2023-04-22T13:25:50.202Z,96.60
2023-04-22T13:28:17.483Z,96.90
2023-04-22T13:30:44.962Z,97.50
2023-04-22T13:33:12.322Z,97.40
2023-04-22T13:35:39.672Z,97.30
2023-04-22T13:38:07.185Z,97.00
2023-04-22T13:40:34.992Z,96.30
2023-04-22T13:43:02.260Z,96.40
2023-04-22T13:45:29.677Z,96.60
2023-04-22T13:47:57.035Z,96.20
2023-04-22T13:50:24.266Z,96.40
2023-04-22T13:52:51.722Z,96.20
2023-04-22T13:55:18.968Z,95.80
2023-04-22T13:57:46.405Z,95.90
2023-04-22T14:00:13.958Z,95.80
2023-04-22T14:02:41.656Z,96.10
2023-04-22T14:05:10.030Z,96.10
2023-04-22T14:07:37.379Z,96.10
2023-04-22T14:10:06.010Z,95.70
2023-04-22T14:12:33.264Z,96.10
2023-04-22T14:15:00.507Z,96.50
2023-04-22T14:17:27.814Z,96.50
2023-04-22T14:19:55.237Z,97.20
2023-04-22T14:22:22.495Z,97.10
2023-04-22T14:24:49.834Z,96.70
2023-04-22T14:27:17.118Z,96.90
2023-04-22T14:29:45.641Z,96.60
2023-04-22T14:32:12.915Z,96.70
2023-04-22T14:34:40.184Z,96.70
2023-04-22T14:37:07.433Z,97.20
2023-04-22T14:39:34.666Z,97.40
2023-04-22T14:42:02.522Z,97.50
2023-04-22T14:44:29.758Z,97.40
2023-04-22T14:46:57.189Z,97.10
2023-04-22T14:49:24.388Z,97.10
2023-04-22T14:51:52.290Z,97.40
2023-04-22T14:54:19.584Z,97.40
2023-04-22T14:56:47.416Z,97.70
2023-04-22T14:59:14.741Z,97.40
2023-04-22T15:01:43.011Z,97.00
2023-04-22T15:04:13.483Z,97.00
2023-04-22T15:06:41.279Z,97.10
2023-04-22T15:09:08.567Z,97.60
2023-04-22T15:11:35.916Z,97.70
2023-04-22T15:14:03.202Z,97.90
2023-04-22T15:16:30.480Z,97.80
2023-04-22T15:18:57.819Z,97.40
2023-04-22T15:21:25.043Z,97.40
2023-04-22T15:23:52.299Z,97.50
2023-04-22T15:26:19.618Z,97.30
2023-04-22T15:28:46.887Z,97.50
2023-04-22T15:31:14.104Z,97.10
2023-04-22T15:33:41.572Z,97.30
2023-04-22T15:36:09.711Z,97.50
2023-04-22T15:38:38.627Z,97.80
2023-04-22T15:41:05.856Z,97.60
2023-04-22T15:43:33.667Z,97.10
2023-04-22T15:46:01.289Z,97.10
2023-04-22T15:48:28.546Z,97.00
2023-04-22T15:50:55.779Z,97.40
2023-04-22T15:53:23.071Z,97.20
2023-04-22T15:55:51.478Z,97.50
2023-04-22T15:58:18.776Z,97.70
2023-04-22T16:00:46.131Z,98.00
2023-04-22T16:03:14.148Z,97.80
2023-04-22T16:05:41.526Z,97.80
2023-04-22T16:08:09.125Z,97.30
2023-04-22T16:10:36.389Z,97.20
2023-04-22T16:13:03.672Z,96.80
2023-04-22T16:15:31.241Z,96.70
2023-04-22T16:17:58.714Z,96.90
2023-04-22T16:20:26.036Z,96.60
2023-04-22T16:22:53.244Z,96.70
2023-04-22T16:25:20.757Z,97.30
2023-04-22T16:27:48.112Z,97.30
2023-04-22T16:30:16.306Z,96.70
2023-04-22T16:32:43.622Z,96.90
2023-04-22T16:35:11.360Z,97.00
2023-04-22T16:37:38.691Z,97.10
2023-04-22T16:40:07.485Z,96.90
2023-04-22T16:42:34.862Z,96.60
2023-04-22T16:45:02.261Z,96.80
2023-04-22T16:47:29.620Z,96.70
2023-04-22T16:49:56.830Z,96.60
2023-04-22T16:52:24.064Z,96.90
2023-04-22T16:54:51.617Z,96.90
2023-04-22T16:57:18.905Z,96.90
2023-04-22T16:59:46.212Z,97.10
2023-04-22T17:02:13.477Z,97.20
2023-04-22T17:04:40.933Z,97.30
2023-04-22T17:07:08.188Z,97.10
2023-04-22T17:09:35.457Z,97.20
2023-04-22T17:12:02.713Z,97.60
2023-04-22T17:14:30.711Z,97.50
2023-04-22T17:16:57.989Z,97.60
2023-04-22T17:19:25.604Z,97.70
2023-04-22T17:21:52.959Z,97.70
2023-04-22T17:24:22.260Z,97.60
2023-04-22T17:26:49.694Z,97.40
2023-04-22T17:29:21.403Z,97.50
2023-04-22T17:31:49.119Z,97.60
2023-04-22T17:34:17.085Z,97.80
2023-04-22T17:36:44.312Z,98.20
2023-04-22T17:39:11.783Z,98.40
2023-04-22T17:41:39.169Z,99.00
2023-04-22T17:44:08.789Z,99.00
2023-04-22T17:46:36.248Z,99.30
2023-04-22T17:49:03.490Z,99.60
2023-04-22T17:51:31.440Z,99.90
2023-04-22T17:54:00.650Z,99.90
2023-04-22T17:56:27.980Z,99.90
2023-04-22T17:58:55.269Z,99.90
2023-04-22T18:01:22.529Z,99.90
2023-04-22T18:03:49.868Z,99.90
2023-04-22T18:06:17.224Z,99.90
2023-04-22T18:08:44.476Z,99.90
2023-04-22T18:11:11.862Z,99.90
2023-04-22T18:13:39.419Z,99.90
2023-04-22T18:16:07.364Z,99.90
2023-04-22T18:18:35.384Z,99.90
2023-04-22T18:21:02.709Z,99.90
2023-04-22T18:23:30.024Z,99.90
2023-04-22T18:25:57.242Z,99.90
2023-04-22T18:28:24.538Z,99.90
2023-04-22T18:30:52.200Z,99.90
2023-04-22T18:33:19.485Z,99.90
2023-04-22T18:35:46.710Z,99.90
2023-04-22T18:38:14.010Z,99.90
2023-04-22T18:40:41.259Z,99.90
2023-04-22T18:43:08.630Z,99.90
2023-04-22T18:45:35.799Z,99.90
2023-04-22T18:48:03.176Z,99.90
2023-04-22T18:50:30.452Z,99.90
2023-04-22T18:52:57.706Z,99.90
2023-04-22T18:55:24.901Z,99.90
2023-04-22T18:57:52.136Z,99.90
2023-04-22T19:00:20.082Z,99.90
2023-04-22T19:02:47.496Z,99.90
2023-04-22T19:05:15.185Z,99.90
2023-04-22T19:07:44.914Z,99.90
2023-04-22T19:10:12.714Z,99.90
2023-04-22T19:12:40.105Z,99.90
2023-04-22T19:15:08.612Z,99.90
2023-04-22T19:17:36.250Z,99.90
2023-04-22T19:20:06.025Z,99.90
2023-04-22T19:22:33.455Z,99.90
2023-04-22T19:25:00.945Z,99.90
2023-04-22T19:27:28.493Z,99.90
2023-04-22T19:29:56.217Z,99.90
2023-04-22T19:32:23.635Z,99.90
2023-04-22T19:34:50.989Z,99.90
2023-04-22T19:37:18.493Z,99.90
2023-04-22T19:39:45.827Z,99.90
2023-04-22T19:42:13.128Z,99.90
2023-04-22T19:44:42.837Z,99.90
2023-04-22T19:47:10.493Z,99.90
2023-04-22T19:49:38.984Z,99.90
2023-04-22T19:52:09.503Z,99.90
2023-04-22T19:54:37.060Z,99.90
2023-04-22T19:57:06.493Z,99.90
2023-04-22T19:59:34.278Z,99.90
2023-04-22T20:02:01.896Z,99.90
2023-04-22T20:04:29.586Z,99.90
2023-04-22T20:06:57.724Z,99.90
2023-04-22T20:09:26.483Z,99.90
2023-04-22T20:11:53.870Z,99.90
2023-04-22T20:14:22.314Z,99.90
2023-04-22T20:16:50.091Z,99.90
2023-04-22T20:19:17.934Z,99.90
2023-04-22T20:21:48.263Z,99.90
2023-04-22T20:24:19.045Z,99.90
2023-04-22T20:26:50.114Z,99.90
2023-04-22T20:29:22.172Z,99.90
2023-04-22T20:31:49.871Z,99.90
2023-04-22T20:34:17.412Z,99.90
2023-04-22T20:36:45.084Z,99.90
2023-04-22T20:39:14.118Z,99.90
2023-04-22T20:41:41.923Z,99.90
2023-04-22T20:44:09.214Z,99.90
2023-04-22T20:46:37.391Z,99.90
2023-04-22T20:49:04.643Z,99.90
2023-04-22T20:51:32.075Z,99.90
2023-04-22T20:53:59.368Z,99.90
2023-04-22T20:56:27.335Z,99.90
2023-04-22T20:58:54.618Z,99.90
2023-04-22T21:01:21.895Z,99.90
2023-04-22T21:03:54.079Z,99.90
2023-04-22T21:06:22.153Z,99.90
2023-04-22T21:08:50.112Z,99.90
2023-04-22T21:11:18.495Z,99.90
2023-04-22T21:13:46.306Z,99.90
2023-04-22T21:16:18.182Z,99.90
2023-04-22T21:18:46.522Z,99.90
2023-04-22T21:21:17.385Z,99.90
2023-04-22T21:23:44.929Z,99.90
2023-04-22T21:26:14.890Z,99.90
2023-04-22T21:28:42.753Z,99.90
2023-04-22T21:31:11.920Z,99.90
2023-04-22T21:33:42.610Z,99.90
2023-04-22T21:36:10.484Z,99.90
2023-04-22T21:38:38.086Z,99.90
2023-04-22T21:41:05.463Z,99.90
2023-04-22T21:43:32.806Z,99.90
2023-04-22T21:46:01.253Z,99.90
2023-04-22T21:48:29.078Z,99.90
2023-04-22T21:50:56.881Z,99.90
2023-04-22T21:53:24.869Z,99.90
2023-04-22T21:55:52.679Z,99.90
2023-04-22T21:58:20.913Z,99.90
2023-04-22T22:00:49.034Z,99.90
2023-04-22T22:03:16.708Z,99.90
2023-04-22T22:05:43.992Z,99.90
2023-04-22T22:08:11.716Z,99.90
2023-04-22T22:10:39.589Z,99.90
2023-04-22T22:13:08.245Z,99.90
2023-04-22T22:15:36.892Z,99.90
2023-04-22T22:18:05.000Z,99.90
2023-04-22T22:20:32.959Z,99.90
2023-04-22T22:23:01.202Z,99.90
2023-04-22T22:25:28.608Z,99.90
2023-04-22T22:27:56.569Z,99.90
2023-04-22T22:30:25.259Z,99.90
2023-04-22T22:32:53.060Z,99.90
2023-04-22T22:35:21.120Z,99.90
2023-04-22T22:37:48.356Z,99.90
2023-04-22T22:40:16.412Z,99.90
2023-04-22T22:42:43.886Z,99.90
2023-04-22T22:45:11.560Z,99.90
2023-04-22T22:47:39.045Z,99.90
2023-04-22T22:50:07.324Z,99.90
2023-04-22T22:52:34.541Z,99.90
2023-04-22T22:55:01.771Z,99.90
2023-04-22T22:57:29.027Z,99.90
2023-04-22T22:59:56.242Z,99.90
2023-04-22T23:02:23.688Z,99.90
2023-04-22T23:04:51.892Z,99.90
2023-04-22T23:07:19.174Z,99.90
2023-04-22T23:09:46.395Z,99.90
2023-04-22T23:12:13.674Z,99.90
2023-04-22T23:14:41.329Z,99.90
2023-04-22T23:17:08.978Z,99.90
2023-04-22T23:19:36.626Z,99.90
2023-04-22T23:22:05.845Z,99.90
2023-04-22T23:24:33.399Z,99.90
2023-04-22T23:27:01.217Z,99.90
2023-04-22T23:29:28.821Z,99.90
2023-04-22T23:31:56.940Z,99.90
2023-04-22T23:34:24.895Z,99.90
2023-04-22T23:36:53.000Z,99.90
2023-04-22T23:39:20.406Z,99.90
2023-04-22T23:41:47.979Z,99.90
2023-04-22T23:44:15.300Z,99.90
2023-04-22T23:46:42.558Z,99.90
2023-04-22T23:49:09.788Z,99.90
2023-04-22T23:51:38.119Z,99.90
2023-04-22T23:54:05.648Z,99.90
2023-04-22T23:56:33.134Z,99.90
2023-04-22T23:59:00.583Z,99.90
